New Sweden, Maine
Current Conditions -  °F | °C
As of 1:54 AM on Tuesday 21 Oct 2014 (Local Time) from KCAR Reporting Station
Clear Clear  
Wind Chill: 30°   Ceiling: Unl
Heat Index: 30°   Visibility: 10mi
Dew Point: 25°   Wind: 3mph
Humidity: 82%   Direction: 260°W
Pressure: 29.96"   Gusts: NA
Location:  46.94°N, 68.12°W
Report Text: KCAR 210554Z AUTO 26003KT 10SM CLR M01/M04 A2996 RMK AO2 SLP155 T10111039 10028 21011 51011
Loading
Personal Weather Stations






























Interactive Weather Map
Tropical Storm Tracking
New forecast layout! Learn more

10-Day Weather Forecast

Advertisements
Track Severe Weather on mobile